Time;durP1;ratioP1;P1;durP2;ratioP2;P2;SDS_P1;SDS_P2;PMS_P1;PMS_P2;Temp;Humidity;BMP_temperature;BMP_pressure;BME280_temperature;BME280_humidity;BME280_pressure;Samples;Min_cycle;Max_cycle;Signal;HPM_P1;HPM_P2
2023/01/01 00:00:12;;;;;;;6.05;3.88;;;;;;;;;;8223889;28;20050;-63
2023/01/01 00:04:14;;;;;;;12.10;7.85;;;;;;;;;;8219957;28;20594;-63
2023/01/01 00:08:14;;;;;;;6.45;3.40;;;;;;;;;;8230439;28;20042;-63
2023/01/01 00:12:14;;;;;;;8.23;3.80;;;;;;;;;;8225894;28;20093;-63
2023/01/01 00:16:15;;;;;;;5.65;3.83;;;;;;;;;;8230820;28;20046;-63
2023/01/01 00:20:15;;;;;;;7.07;4.35;;;;;;;;;;8228113;28;20022;-62
2023/01/01 00:24:15;;;;;;;7.65;4.28;;;;;;;;;;8229106;28;20035;-63
2023/01/01 00:28:15;;;;;;;4.78;3.17;;;;;;;;;;8227617;28;20041;-63
2023/01/01 00:32:15;;;;;;;5.35;3.70;;;;;;;;;;8223923;28;20050;-63
2023/01/01 00:36:16;;;;;;;5.13;3.45;;;;;;;;;;8228415;28;20063;-62
2023/01/01 00:40:17;;;;;;;6.95;3.95;;;;;;;;;;8231537;28;20789;-63
2023/01/01 00:44:17;;;;;;;7.43;3.95;;;;;;;;;;8225927;28;20107;-62
2023/01/01 00:48:18;;;;;;;3.47;3.03;;;;;;;;;;8224456;28;20051;-63
2023/01/01 00:52:18;;;;;;;7.55;3.42;;;;;;;;;;8221865;28;20117;-63
2023/01/01 00:56:18;;;;;;;7.00;3.10;;;;;;;;;;8228111;28;20122;-63
2023/01/01 01:00:19;;;;;;;5.57;2.85;;;;;;;;;;8227286;28;20129;-63
2023/01/01 01:04:19;;;;;;;5.27;2.80;;;;;;;;;;8225469;28;20060;-63
2023/01/01 01:08:19;;;;;;;3.97;2.35;;;;;;;;;;8228896;28;20026;-63
2023/01/01 01:12:19;;;;;;;5.43;2.70;;;;;;;;;;8233917;28;20031;-63
2023/01/01 01:16:27;;;;;;;5.60;2.63;;;;;;;;;;8225176;28;20093;-63
2023/01/01 01:20:27;;;;;;;3.78;2.40;;;;;;;;;;8237359;28;20631;-63
2023/01/01 01:24:27;;;;;;;3.55;2.40;;;;;;;;;;8229719;28;20466;-63
2023/01/01 01:28:29;;;;;;;3.20;2.13;;;;;;;;;;8225845;28;20039;-63
2023/01/01 01:32:30;;;;;;;4.75;2.20;;;;;;;;;;8222639;28;20656;-63
2023/01/01 01:36:30;;;;;;;3.83;2.00;;;;;;;;;;8226991;28;20030;-63
2023/01/01 01:40:31;;;;;;;3.60;2.17;;;;;;;;;;8224685;28;20121;-63
2023/01/01 01:44:44;;;;;;;5.88;1.85;;;;;;;;;;8226907;28;20558;-63
2023/01/01 01:48:49;;;;;;;3.88;1.63;;;;;;;;;;8228020;28;20043;-63
2023/01/01 01:53:10;;;;;;;4.38;1.65;;;;;;;;;;8230626;28;20022;-63
2023/01/01 01:57:11;;;;;;;3.05;1.70;;;;;;;;;;8240134;28;20038;-63
2023/01/01 02:01:11;;;;;;;4.50;1.73;;;;;;;;;;8234578;28;20093;-63
2023/01/01 02:05:12;;;;;;;4.70;1.90;;;;;;;;;;8233360;28;20046;-63
2023/01/01 02:09:12;;;;;;;7.60;2.00;;;;;;;;;;8227835;28;20324;-63
2023/01/01 02:13:12;;;;;;;2.33;1.50;;;;;;;;;;8233903;28;20305;-63
2023/01/01 02:17:17;;;;;;;3.87;1.80;;;;;;;;;;8235218;28;20286;-63
2023/01/01 02:21:40;;;;;;;4.65;1.90;;;;;;;;;;8235146;28;20054;-63
2023/01/01 02:25:43;;;;;;;3.28;1.98;;;;;;;;;;8220180;28;20042;-63
2023/01/01 02:29:44;;;;;;;3.63;2.07;;;;;;;;;;8237148;28;20723;-63
2023/01/01 02:33:45;;;;;;;5.30;1.90;;;;;;;;;;8230737;28;20038;-63
2023/01/01 02:37:47;;;;;;;3.58;1.60;;;;;;;;;;8233154;28;20027;-63
2023/01/01 02:41:49;;;;;;;4.03;2.15;;;;;;;;;;8231692;28;20022;-63
2023/01/01 02:45:49;;;;;;;3.67;1.92;;;;;;;;;;8231865;28;20031;-63
2023/01/01 02:49:53;;;;;;;3.22;1.73;;;;;;;;;;8235499;28;20037;-63
2023/01/01 02:53:59;;;;;;;5.30;1.88;;;;;;;;;;8233620;28;20598;-63
2023/01/01 03:02:42;;;;;;;5.47;1.50;;;;;;;;;;8237029;28;20066;-63
2023/01/01 03:06:52;;;;;;;3.17;1.70;;;;;;;;;;8234609;28;20338;-63
2023/01/01 03:15:45;;;;;;;5.28;1.55;;;;;;;;;;8195477;28;21334;-63
2023/01/01 03:19:48;;;;;;;2.90;1.55;;;;;;;;;;8221936;28;20120;-63
2023/01/01 03:23:49;;;;;;;4.68;1.50;;;;;;;;;;8234422;28;20026;-63
2023/01/01 03:27:52;;;;;;;5.53;1.73;;;;;;;;;;8233397;28;20379;-63
2023/01/01 03:31:55;;;;;;;3.08;1.70;;;;;;;;;;8229529;28;20053;-63
2023/01/01 03:36:13;;;;;;;3.85;1.65;;;;;;;;;;8234803;28;20094;-63
2023/01/01 03:40:14;;;;;;;3.83;1.80;;;;;;;;;;8230105;28;20506;-63
2023/01/01 03:44:26;;;;;;;4.53;1.88;;;;;;;;;;8232338;28;20089;-63
2023/01/01 03:48:26;;;;;;;5.25;1.88;;;;;;;;;;8231351;28;20042;-63
2023/01/01 03:52:31;;;;;;;3.80;1.73;;;;;;;;;;8227168;28;20042;-63
2023/01/01 03:56:40;;;;;;;4.03;1.67;;;;;;;;;;8232534;28;20023;-63
2023/01/01 04:00:45;;;;;;;5.82;1.70;;;;;;;;;;8232739;28;20046;-63
2023/01/01 04:04:47;;;;;;;3.22;1.70;;;;;;;;;;8227820;28;20492;-63
2023/01/01 04:08:49;;;;;;;3.13;1.73;;;;;;;;;;8232614;28;20041;-63
2023/01/01 04:12:50;;;;;;;8.60;2.25;;;;;;;;;;8225040;28;20624;-63
2023/01/01 04:16:50;;;;;;;6.20;1.98;;;;;;;;;;8231201;28;20035;-63
2023/01/01 04:20:50;;;;;;;6.50;1.97;;;;;;;;;;8234647;28;20030;-63
2023/01/01 04:24:51;;;;;;;6.75;1.92;;;;;;;;;;8228905;28;20026;-63
2023/01/01 04:28:51;;;;;;;4.85;1.70;;;;;;;;;;8233519;28;20089;-63
2023/01/01 04:32:51;;;;;;;7.55;2.08;;;;;;;;;;8227040;28;20046;-63
2023/01/01 04:36:51;;;;;;;6.70;1.67;;;;;;;;;;8228540;28;20029;-63
2023/01/01 04:40:58;;;;;;;6.63;1.52;;;;;;;;;;8236616;28;20994;-63
2023/01/01 04:44:58;;;;;;;5.68;1.92;;;;;;;;;;8232456;28;20014;-63
2023/01/01 04:48:59;;;;;;;3.28;1.60;;;;;;;;;;8226691;28;20062;-63
2023/01/01 04:52:59;;;;;;;6.03;1.80;;;;;;;;;;8230939;28;20119;-63
2023/01/01 04:56:59;;;;;;;9.23;1.80;;;;;;;;;;8231294;28;20030;-63
2023/01/01 05:00:59;;;;;;;4.00;1.75;;;;;;;;;;8229908;28;20201;-63
2023/01/01 05:04:59;;;;;;;4.35;1.90;;;;;;;;;;8231628;28;20113;-63
2023/01/01 05:09:02;;;;;;;5.07;1.77;;;;;;;;;;8229779;28;20493;-63
2023/01/01 05:13:05;;;;;;;4.17;1.80;;;;;;;;;;8226892;28;20031;-63
2023/01/01 05:17:05;;;;;;;2.13;1.80;;;;;;;;;;8230566;28;20042;-63
2023/01/01 05:21:07;;;;;;;6.80;1.67;;;;;;;;;;8234419;28;20260;-63
2023/01/01 05:25:07;;;;;;;4.78;2.15;;;;;;;;;;8226724;28;20054;-63
2023/01/01 05:29:07;;;;;;;4.63;2.05;;;;;;;;;;8229325;28;20576;-63
2023/01/01 05:33:08;;;;;;;7.68;1.80;;;;;;;;;;8225635;28;20886;-63
2023/01/01 05:37:08;;;;;;;4.10;1.88;;;;;;;;;;8226654;28;20042;-63
2023/01/01 05:41:09;;;;;;;3.03;1.60;;;;;;;;;;8226752;28;20034;-63
2023/01/01 05:45:09;;;;;;;5.28;1.73;;;;;;;;;;8228093;28;20040;-63
2023/01/01 05:49:10;;;;;;;3.67;1.75;;;;;;;;;;8229790;28;20027;-63
2023/01/01 05:53:10;;;;;;;6.93;1.73;;;;;;;;;;8230173;28;20525;-63
2023/01/01 05:57:11;;;;;;;4.97;1.98;;;;;;;;;;8228125;28;20053;-63
2023/01/01 06:01:16;;;;;;;6.97;1.85;;;;;;;;;;8227504;28;20045;-63
2023/01/01 06:05:16;;;;;;;3.85;1.55;;;;;;;;;;8221256;28;20039;-63
2023/01/01 06:09:16;;;;;;;5.03;1.83;;;;;;;;;;8224613;28;20038;-63
2023/01/01 06:13:16;;;;;;;5.25;1.80;;;;;;;;;;8230471;28;20041;-63
2023/01/01 06:17:16;;;;;;;4.22;1.60;;;;;;;;;;8224342;28;20050;-63
2023/01/01 06:21:21;;;;;;;5.38;1.80;;;;;;;;;;8223121;28;20031;-63
2023/01/01 06:25:21;;;;;;;2.53;1.70;;;;;;;;;;8227686;28;20007;-63
2023/01/01 06:29:21;;;;;;;4.25;1.90;;;;;;;;;;8226243;28;20042;-63
2023/01/01 06:33:21;;;;;;;3.92;1.80;;;;;;;;;;8223563;28;20030;-63
2023/01/01 06:37:21;;;;;;;6.57;1.48;;;;;;;;;;8231881;28;20609;-62
2023/01/01 06:41:23;;;;;;;4.38;1.85;;;;;;;;;;8240072;28;20030;-63
2023/01/01 06:45:23;;;;;;;4.78;1.92;;;;;;;;;;8231184;28;20034;-63
2023/01/01 06:49:23;;;;;;;6.32;2.30;;;;;;;;;;8233823;28;20038;-63
2023/01/01 06:53:24;;;;;;;4.35;1.70;;;;;;;;;;8238071;28;20023;-63
2023/01/01 06:57:24;;;;;;;5.15;1.70;;;;;;;;;;8234141;28;20061;-63
2023/01/01 07:01:26;;;;;;;4.95;1.90;;;;;;;;;;8231809;28;20385;-63
2023/01/01 07:05:26;;;;;;;6.72;1.80;;;;;;;;;;8233155;28;20767;-63
2023/01/01 07:09:26;;;;;;;5.68;1.90;;;;;;;;;;8235415;28;20053;-63
2023/01/01 07:13:27;;;;;;;2.97;1.80;;;;;;;;;;8236502;28;20558;-63
2023/01/01 07:17:27;;;;;;;6.22;1.90;;;;;;;;;;8234240;28;20042;-63
2023/01/01 07:21:27;;;;;;;8.15;1.75;;;;;;;;;;8236236;28;20034;-63
2023/01/01 07:25:28;;;;;;;2.65;1.63;;;;;;;;;;8236759;28;20027;-63
2023/01/01 07:29:28;;;;;;;6.00;1.73;;;;;;;;;;8234482;28;20034;-62
2023/01/01 07:33:28;;;;;;;4.82;1.95;;;;;;;;;;8236942;28;20051;-62
2023/01/01 07:37:28;;;;;;;4.20;1.70;;;;;;;;;;8233745;28;20023;-63
2023/01/01 07:41:28;;;;;;;4.60;1.60;;;;;;;;;;8231318;28;20026;-62
2023/01/01 07:45:29;;;;;;;8.57;1.80;;;;;;;;;;8232572;28;20927;-63
2023/01/01 07:49:29;;;;;;;5.13;1.70;;;;;;;;;;8230976;28;20436;-63
2023/01/01 07:53:29;;;;;;;4.50;1.85;;;;;;;;;;8235093;28;20131;-62
2023/01/01 07:57:30;;;;;;;5.88;2.00;;;;;;;;;;8231972;28;20034;-63
2023/01/01 08:01:30;;;;;;;5.20;2.00;;;;;;;;;;8225639;28;20039;-63
2023/01/01 08:05:30;;;;;;;5.75;2.33;;;;;;;;;;8234765;28;20034;-63
2023/01/01 08:09:30;;;;;;;5.10;1.77;;;;;;;;;;8235784;28;20504;-63
2023/01/01 08:13:30;;;;;;;5.80;1.77;;;;;;;;;;8235271;28;20051;-63
2023/01/01 08:17:31;;;;;;;5.55;2.20;;;;;;;;;;8233014;28;20042;-63
2023/01/01 08:21:31;;;;;;;7.80;1.98;;;;;;;;;;8231189;28;20037;-63
2023/01/01 08:25:31;;;;;;;6.38;1.95;;;;;;;;;;8235090;28;20030;-62
2023/01/01 08:29:31;;;;;;;8.85;2.33;;;;;;;;;;8233047;28;20522;-63
2023/01/01 08:33:31;;;;;;;4.88;1.88;;;;;;;;;;8226071;28;20035;-62
2023/01/01 08:37:31;;;;;;;5.68;1.77;;;;;;;;;;8232640;28;20058;-63
2023/01/01 08:41:32;;;;;;;6.88;2.20;;;;;;;;;;8225981;28;20611;-62
2023/01/01 08:45:32;;;;;;;10.07;2.20;;;;;;;;;;8231662;28;20102;-63
2023/01/01 08:49:32;;;;;;;9.88;1.85;;;;;;;;;;8227482;28;20313;-63
2023/01/01 08:53:32;;;;;;;9.40;2.00;;;;;;;;;;8221792;28;20136;-63
2023/01/01 08:57:33;;;;;;;6.97;2.07;;;;;;;;;;8231488;28;20030;-62
2023/01/01 09:01:33;;;;;;;7.93;2.25;;;;;;;;;;8224668;28;20269;-63
2023/01/01 09:05:33;;;;;;;8.82;1.92;;;;;;;;;;8220981;28;20027;-63
2023/01/01 09:09:33;;;;;;;5.82;1.98;;;;;;;;;;8227139;28;20042;-63
2023/01/01 09:13:34;;;;;;;7.00;2.38;;;;;;;;;;8238140;28;20080;-63
2023/01/01 09:17:34;;;;;;;3.03;1.70;;;;;;;;;;8228000;28;20069;-63
2023/01/01 09:21:34;;;;;;;4.90;1.70;;;;;;;;;;8225752;28;20037;-63
2023/01/01 09:25:34;;;;;;;6.28;2.10;;;;;;;;;;8217426;28;20098;-63
2023/01/01 09:29:34;;;;;;;6.90;2.13;;;;;;;;;;8219275;28;20035;-63
2023/01/01 09:33:35;;;;;;;5.10;1.95;;;;;;;;;;8224772;28;20050;-63
2023/01/01 09:37:35;;;;;;;6.25;1.83;;;;;;;;;;8226221;28;20031;-63
2023/01/01 09:41:44;;;;;;;5.75;1.88;;;;;;;;;;8220779;28;20787;-63
2023/01/01 09:45:56;;;;;;;5.90;2.17;;;;;;;;;;8219238;28;20035;-63
2023/01/01 09:50:00;;;;;;;8.30;2.20;;;;;;;;;;8215579;28;20828;-63
2023/01/01 09:54:05;;;;;;;7.70;2.00;;;;;;;;;;8221144;28;20757;-63
2023/01/01 09:58:07;;;;;;;5.15;1.90;;;;;;;;;;8220452;28;20022;-63
2023/01/01 10:02:10;;;;;;;5.90;2.10;;;;;;;;;;8219782;28;20122;-63
2023/01/01 10:06:13;;;;;;;10.35;2.40;;;;;;;;;;8233226;28;20046;-63
2023/01/01 10:10:23;;;;;;;8.33;1.97;;;;;;;;;;8230735;28;21056;-63
2023/01/01 10:14:37;;;;;;;6.57;1.95;;;;;;;;;;8228486;28;20027;-63
2023/01/01 10:18:39;;;;;;;4.57;1.90;;;;;;;;;;8230957;28;20047;-63
2023/01/01 10:22:42;;;;;;;7.00;2.10;;;;;;;;;;8234063;28;20007;-63
2023/01/01 10:26:42;;;;;;;10.35;2.13;;;;;;;;;;8228723;28;20027;-63
2023/01/01 10:30:42;;;;;;;6.80;2.20;;;;;;;;;;8221031;28;20703;-63
2023/01/01 10:34:43;;;;;;;7.68;2.28;;;;;;;;;;8227758;28;20854;-63
2023/01/01 10:38:43;;;;;;;6.32;1.95;;;;;;;;;;8232333;28;20030;-63
2023/01/01 10:42:48;;;;;;;8.85;1.98;;;;;;;;;;8226679;28;20161;-63
2023/01/01 10:46:52;;;;;;;5.10;2.00;;;;;;;;;;8230903;28;20034;-63
2023/01/01 10:50:52;;;;;;;7.50;2.00;;;;;;;;;;8228265;28;20026;-63
2023/01/01 10:54:52;;;;;;;9.05;2.05;;;;;;;;;;8220989;28;20140;-63
2023/01/01 10:58:53;;;;;;;8.73;2.45;;;;;;;;;;8222884;28;20026;-63
2023/01/01 11:03:08;;;;;;;7.30;1.80;;;;;;;;;;8214001;28;20070;-63
2023/01/01 11:07:16;;;;;;;5.95;2.13;;;;;;;;;;8230670;28;20053;-64
2023/01/01 11:11:19;;;;;;;6.40;1.90;;;;;;;;;;8231169;28;20037;-63
2023/01/01 11:15:21;;;;;;;6.47;1.97;;;;;;;;;;8230723;28;20547;-63
2023/01/01 11:19:24;;;;;;;7.38;2.10;;;;;;;;;;8235413;28;20035;-63
2023/01/01 11:23:29;;;;;;;6.82;1.92;;;;;;;;;;8226159;28;20030;-63
2023/01/01 11:27:29;;;;;;;4.70;1.73;;;;;;;;;;8228064;28;21037;-63
2023/01/01 11:31:34;;;;;;;6.32;1.73;;;;;;;;;;8218403;28;20031;-63
2023/01/01 11:35:47;;;;;;;8.35;2.10;;;;;;;;;;8223292;28;20050;-63
2023/01/01 11:39:48;;;;;;;9.02;2.00;;;;;;;;;;8228107;28;20823;-63
2023/01/01 11:43:48;;;;;;;5.80;1.90;;;;;;;;;;8219502;28;20046;-63
2023/01/01 11:47:54;;;;;;;4.10;1.65;;;;;;;;;;8231073;28;20035;-63
2023/01/01 11:51:54;;;;;;;6.50;2.17;;;;;;;;;;8223786;28;20786;-63
2023/01/01 11:56:00;;;;;;;10.68;1.88;;;;;;;;;;8223071;28;20034;-63
2023/01/01 12:00:02;;;;;;;10.18;3.25;;;;;;;;;;8225545;28;20072;-63
2023/01/01 12:04:05;;;;;;;7.70;2.78;;;;;;;;;;8220007;28;20045;-63
2023/01/01 12:08:07;;;;;;;7.97;2.17;;;;;;;;;;8217847;28;20023;-63
2023/01/01 12:12:22;;;;;;;5.90;2.20;;;;;;;;;;8225204;28;20536;-63
2023/01/01 12:16:31;;;;;;;5.07;1.85;;;;;;;;;;8227742;28;20096;-63
2023/01/01 12:20:33;;;;;;;7.22;2.67;;;;;;;;;;8231228;28;20073;-63
2023/01/01 12:24:34;;;;;;;6.15;2.13;;;;;;;;;;8229234;28;20112;-63
2023/01/01 12:28:37;;;;;;;6.30;2.42;;;;;;;;;;8222496;28;20895;-63
2023/01/01 12:32:37;;;;;;;6.03;1.80;;;;;;;;;;8217194;28;20414;-63
2023/01/01 12:36:42;;;;;;;7.20;2.65;;;;;;;;;;8223714;28;20027;-63
2023/01/01 12:40:50;;;;;;;7.60;2.03;;;;;;;;;;8234381;28;20027;-64
2023/01/01 12:45:05;;;;;;;4.85;1.83;;;;;;;;;;8218357;28;20042;-63
2023/01/01 12:49:06;;;;;;;7.28;2.20;;;;;;;;;;8217639;28;20059;-63
2023/01/01 12:53:06;;;;;;;5.93;1.90;;;;;;;;;;8216331;28;20026;-63
2023/01/01 12:57:18;;;;;;;5.97;1.80;;;;;;;;;;8216800;28;20910;-63
2023/01/01 13:01:21;;;;;;;5.72;1.98;;;;;;;;;;8213445;28;20134;-63
2023/01/01 13:05:22;;;;;;;7.22;1.88;;;;;;;;;;8218925;28;20014;-63
2023/01/01 13:09:24;;;;;;;10.38;2.20;;;;;;;;;;8223675;28;20113;-63
2023/01/01 13:13:25;;;;;;;5.82;2.10;;;;;;;;;;8214228;28;20088;-63
2023/01/01 13:17:50;;;;;;;9.30;2.35;;;;;;;;;;8243890;28;20026;-68
2023/01/01 13:21:51;;;;;;;8.15;2.30;;;;;;;;;;8232177;28;20034;-63
2023/01/01 13:26:11;;;;;;;7.68;2.13;;;;;;;;;;8219670;28;20041;-63
2023/01/01 13:30:30;;;;;;;7.38;1.90;;;;;;;;;;8221602;28;20348;-63
2023/01/01 13:34:31;;;;;;;8.73;2.05;;;;;;;;;;8218383;28;20019;-62
2023/01/01 13:38:49;;;;;;;8.20;2.38;;;;;;;;;;8222269;28;20061;-62
2023/01/01 13:42:53;;;;;;;7.85;2.40;;;;;;;;;;8222464;28;20127;-63
2023/01/01 13:47:01;;;;;;;6.43;1.80;;;;;;;;;;8227849;28;20042;-63
2023/01/01 13:51:20;;;;;;;7.35;2.13;;;;;;;;;;8221672;28;20037;-63
2023/01/01 13:55:32;;;;;;;4.72;1.88;;;;;;;;;;8224232;28;20042;-63
2023/01/01 13:59:47;;;;;;;7.07;2.35;;;;;;;;;;8224056;28;20046;-63
2023/01/01 14:03:49;;;;;;;7.07;2.45;;;;;;;;;;8223715;28;20035;-63
2023/01/01 14:07:51;;;;;;;7.72;2.13;;;;;;;;;;8221089;28;20018;-63
2023/01/01 14:11:51;;;;;;;10.32;2.58;;;;;;;;;;8223480;28;20263;-63
2023/01/01 14:15:56;;;;;;;5.45;2.03;;;;;;;;;;8228362;28;20039;-63
2023/01/01 14:19:56;;;;;;;14.73;2.55;;;;;;;;;;8228779;28;20081;-63
2023/01/01 14:23:57;;;;;;;7.78;1.98;;;;;;;;;;8224832;28;20098;-63
2023/01/01 14:27:58;;;;;;;6.75;2.20;;;;;;;;;;8222956;28;20026;-63
2023/01/01 14:32:01;;;;;;;8.43;1.85;;;;;;;;;;8219639;28;20043;-63
2023/01/01 14:36:13;;;;;;;6.00;1.73;;;;;;;;;;8223785;28;20073;-62
2023/01/01 14:40:19;;;;;;;5.20;1.90;;;;;;;;;;8226584;28;20041;-63
2023/01/01 14:44:21;;;;;;;6.50;2.00;;;;;;;;;;8226349;28;20022;-63
2023/01/01 14:48:22;;;;;;;6.05;2.17;;;;;;;;;;8225483;28;20185;-63
2023/01/01 14:52:25;;;;;;;5.82;2.08;;;;;;;;;;8222092;28;20959;-63
2023/01/01 14:56:27;;;;;;;6.47;2.22;;;;;;;;;;8225414;28;20026;-63
2023/01/01 15:00:28;;;;;;;9.55;2.30;;;;;;;;;;8223826;28;21008;-63
2023/01/01 15:04:29;;;;;;;7.88;3.05;;;;;;;;;;8225702;28;20082;-63
2023/01/01 15:08:29;;;;;;;4.88;2.58;;;;;;;;;;8227376;28;20441;-62
2023/01/01 15:12:32;;;;;;;5.50;2.13;;;;;;;;;;8230020;28;20018;-63
2023/01/01 15:16:32;;;;;;;5.43;2.00;;;;;;;;;;8231891;28;20050;-62
2023/01/01 15:20:34;;;;;;;6.68;2.13;;;;;;;;;;8232528;28;20030;-63
2023/01/01 15:24:36;;;;;;;8.00;4.55;;;;;;;;;;8227686;28;20356;-63
2023/01/01 15:28:37;;;;;;;10.23;4.47;;;;;;;;;;8226823;28;20084;-63
2023/01/01 15:32:37;;;;;;;8.20;3.55;;;;;;;;;;8228138;28;20043;-63
2023/01/01 15:36:37;;;;;;;8.82;3.33;;;;;;;;;;8226014;28;20038;-62
2023/01/01 15:40:39;;;;;;;7.45;4.07;;;;;;;;;;8226153;28;20178;-63
2023/01/01 15:44:40;;;;;;;8.95;3.40;;;;;;;;;;8225553;28;20011;-63
2023/01/01 15:48:48;;;;;;;10.82;2.47;;;;;;;;;;8223360;28;20097;-63
2023/01/01 15:52:50;;;;;;;8.15;2.70;;;;;;;;;;8219999;28;20373;-63
2023/01/01 15:56:50;;;;;;;8.63;3.15;;;;;;;;;;8222193;28;20022;-63
2023/01/01 16:00:54;;;;;;;11.73;4.60;;;;;;;;;;8218384;28;20061;-63
2023/01/01 16:04:54;;;;;;;;;;;;;;;;;;8217864;28;20034;-63
2023/01/01 16:08:54;;;;;;;12.25;7.22;;;;;;;;;;8220924;28;19917;-63
2023/01/01 16:12:54;;;;;;;17.02;7.18;;;;;;;;;;8217981;28;20027;-63
2023/01/01 16:16:59;;;;;;;10.50;6.13;;;;;;;;;;8213222;28;20042;-63
2023/01/01 16:21:00;;;;;;;8.00;3.55;;;;;;;;;;8216585;28;20029;-63
2023/01/01 16:25:01;;;;;;;7.18;3.70;;;;;;;;;;8208473;28;20050;-63
2023/01/01 16:29:01;;;;;;;10.30;2.90;;;;;;;;;;8214469;28;20026;-62
2023/01/01 16:33:02;;;;;;;9.52;3.40;;;;;;;;;;8213764;28;20107;-62
2023/01/01 16:37:02;;;;;;;10.75;4.50;;;;;;;;;;8216860;28;20055;-62
2023/01/01 16:41:02;;;;;;;7.00;2.95;;;;;;;;;;8216365;28;20030;-62
2023/01/01 16:45:03;;;;;;;10.68;3.17;;;;;;;;;;8216602;28;20081;-63
2023/01/01 16:49:03;;;;;;;11.65;3.60;;;;;;;;;;8220303;28;20034;-63
2023/01/01 16:53:03;;;;;;;11.23;3.90;;;;;;;;;;8218348;28;20026;-63
2023/01/01 16:57:03;;;;;;;9.85;4.72;;;;;;;;;;8218837;28;20049;-62
2023/01/01 17:01:04;;;;;;;5.53;3.75;;;;;;;;;;8213948;28;20042;-63
2023/01/01 17:05:04;;;;;;;6.53;3.63;;;;;;;;;;8219418;28;20494;-63
2023/01/01 17:09:04;;;;;;;27.17;10.85;;;;;;;;;;8214310;28;20034;-63
2023/01/01 17:13:05;;;;;;;26.38;11.00;;;;;;;;;;8214085;28;20125;-63
2023/01/01 17:17:05;;;;;;;19.15;8.30;;;;;;;;;;8216920;28;20034;-63
2023/01/01 17:21:06;;;;;;;16.38;7.20;;;;;;;;;;8216870;28;20140;-62
2023/01/01 17:25:06;;;;;;;13.63;5.15;;;;;;;;;;8213430;28;20160;-63
2023/01/01 17:29:07;;;;;;;20.48;7.93;;;;;;;;;;8209880;28;20598;-63
2023/01/01 17:33:07;;;;;;;15.00;6.82;;;;;;;;;;8209849;28;20057;-63
2023/01/01 17:37:07;;;;;;;17.60;7.47;;;;;;;;;;8211528;28;20037;-62
2023/01/01 17:41:08;;;;;;;17.63;6.78;;;;;;;;;;8212431;28;20035;-62
2023/01/01 17:45:09;;;;;;;14.93;5.30;;;;;;;;;;8214915;28;20038;-63
2023/01/01 17:49:09;;;;;;;10.68;4.70;;;;;;;;;;8213650;28;20501;-63
2023/01/01 17:53:10;;;;;;;10.07;4.50;;;;;;;;;;8212374;28;20255;-63
2023/01/01 17:57:10;;;;;;;23.05;11.02;;;;;;;;;;8219049;28;20818;-63
2023/01/01 18:01:19;;;;;;;11.13;7.13;;;;;;;;;;8214361;28;20517;-63
2023/01/01 18:05:20;;;;;;;7.88;4.00;;;;;;;;;;8209931;28;20023;-62
2023/01/01 18:09:21;;;;;;;7.80;2.80;;;;;;;;;;8213367;28;20150;-63
2023/01/01 18:13:21;;;;;;;8.32;3.00;;;;;;;;;;8213027;28;20034;-63
2023/01/01 18:17:21;;;;;;;4.35;2.13;;;;;;;;;;8234372;28;20314;-62
2023/01/01 18:21:22;;;;;;;9.45;2.40;;;;;;;;;;8218568;28;20029;-63
2023/01/01 18:25:22;;;;;;;5.55;2.15;;;;;;;;;;8211467;28;20019;-62
2023/01/01 18:29:22;;;;;;;7.82;2.15;;;;;;;;;;8210122;28;20375;-63
2023/01/01 18:33:23;;;;;;;11.40;2.85;;;;;;;;;;8211838;28;20046;-62
2023/01/01 18:37:23;;;;;;;7.78;4.10;;;;;;;;;;8217766;28;21028;-62
2023/01/01 18:41:39;;;;;;;14.88;3.72;;;;;;;;;;8226109;28;20026;-62
2023/01/01 18:45:40;;;;;;;9.20;3.45;;;;;;;;;;8219750;28;20142;-62
2023/01/01 18:49:43;;;;;;;6.57;2.88;;;;;;;;;;8217573;28;20057;-62
2023/01/01 18:53:43;;;;;;;8.60;2.57;;;;;;;;;;8219288;28;21159;-63
2023/01/01 18:57:47;;;;;;;4.05;1.90;;;;;;;;;;8216324;28;20290;-63
2023/01/01 19:01:47;;;;;;;6.80;2.33;;;;;;;;;;8217424;28;20034;-62
2023/01/01 19:05:47;;;;;;;10.48;2.47;;;;;;;;;;8215125;28;20112;-62
2023/01/01 19:09:48;;;;;;;6.70;2.28;;;;;;;;;;8216676;28;20034;-62
2023/01/01 19:13:50;;;;;;;8.43;2.15;;;;;;;;;;8220720;28;20380;-62
2023/01/01 19:17:51;;;;;;;6.32;2.58;;;;;;;;;;8222511;28;20138;-62
2023/01/01 19:21:55;;;;;;;4.60;2.40;;;;;;;;;;8219188;28;20022;-62
2023/01/01 19:25:57;;;;;;;11.57;3.38;;;;;;;;;;8223202;28;20179;-62
2023/01/01 19:29:57;;;;;;;13.65;4.50;;;;;;;;;;8213176;28;20030;-62
2023/01/01 19:33:57;;;;;;;8.43;3.13;;;;;;;;;;8220062;28;20137;-62
2023/01/01 19:37:58;;;;;;;7.78;2.63;;;;;;;;;;8214544;28;20022;-63
2023/01/01 19:42:02;;;;;;;6.40;3.13;;;;;;;;;;8215734;28;20031;-62
2023/01/01 19:46:03;;;;;;;11.55;2.88;;;;;;;;;;8212752;28;20030;-62
2023/01/01 19:50:03;;;;;;;11.02;2.72;;;;;;;;;;8216229;28;20898;-63
2023/01/01 19:54:05;;;;;;;8.40;2.97;;;;;;;;;;8217773;28;20062;-62
2023/01/01 19:58:06;;;;;;;7.68;2.50;;;;;;;;;;8215247;28;20065;-63
2023/01/01 20:02:06;;;;;;;7.18;2.08;;;;;;;;;;8222651;28;20627;-63
2023/01/01 20:06:07;;;;;;;4.88;2.08;;;;;;;;;;8214710;28;20698;-63
2023/01/01 20:10:07;;;;;;;7.00;2.40;;;;;;;;;;8216541;28;20089;-63
2023/01/01 20:14:07;;;;;;;6.55;3.13;;;;;;;;;;8220023;28;20113;-63
2023/01/01 20:18:07;;;;;;;7.95;3.92;;;;;;;;;;8218040;28;20049;-63
2023/01/01 20:22:11;;;;;;;9.38;4.78;;;;;;;;;;8221950;28;20030;-63
2023/01/01 20:26:12;;;;;;;10.33;4.27;;;;;;;;;;8213682;28;20026;-63
2023/01/01 20:30:12;;;;;;;9.32;5.07;;;;;;;;;;8213621;28;20030;-62
2023/01/01 20:34:12;;;;;;;9.57;4.40;;;;;;;;;;8209740;28;20042;-63
2023/01/01 20:38:13;;;;;;;14.77;6.63;;;;;;;;;;8216817;28;20038;-63
2023/01/01 20:42:14;;;;;;;9.52;4.72;;;;;;;;;;8211120;28;20089;-63
2023/01/01 20:46:14;;;;;;;11.77;5.25;;;;;;;;;;8211022;28;20039;-63
2023/01/01 20:50:15;;;;;;;11.82;6.00;;;;;;;;;;8212758;28;20037;-62
2023/01/01 20:54:15;;;;;;;19.98;8.25;;;;;;;;;;8210470;28;20030;-62
2023/01/01 20:58:17;;;;;;;9.55;5.00;;;;;;;;;;8211787;28;20041;-63
2023/01/01 21:02:17;;;;;;;13.32;7.65;;;;;;;;;;8209489;28;20069;-63
2023/01/01 21:06:18;;;;;;;15.40;7.07;;;;;;;;;;8211212;28;20030;-63
2023/01/01 21:10:18;;;;;;;5.95;2.67;;;;;;;;;;8211960;28;20498;-63
2023/01/01 21:14:18;;;;;;;5.13;3.03;;;;;;;;;;8209844;28;20244;-63
2023/01/01 21:18:19;;;;;;;4.82;1.77;;;;;;;;;;8211681;28;20159;-63
2023/01/01 21:22:19;;;;;;;6.43;1.92;;;;;;;;;;8213723;28;20082;-63
2023/01/01 21:26:25;;;;;;;6.65;1.90;;;;;;;;;;8214387;28;20022;-62
2023/01/01 21:30:25;;;;;;;7.90;2.00;;;;;;;;;;8215242;28;20049;-61
2023/01/01 21:34:39;;;;;;;9.73;2.00;;;;;;;;;;8213321;28;20019;-61
2023/01/01 21:38:39;;;;;;;8.27;1.83;;;;;;;;;;8219929;28;20022;-64
2023/01/01 21:42:39;;;;;;;5.90;1.70;;;;;;;;;;8214004;28;20038;-62
2023/01/01 21:46:45;;;;;;;10.52;2.42;;;;;;;;;;8214871;28;20034;-62
2023/01/01 21:50:46;;;;;;;8.40;1.75;;;;;;;;;;8208324;28;20054;-62
2023/01/01 21:54:47;;;;;;;10.40;2.60;;;;;;;;;;8211632;28;20054;-62
2023/01/01 22:03:12;;;;;;;6.07;2.08;;;;;;;;;;8207838;28;20089;-63
2023/01/01 22:07:14;;;;;;;5.88;2.25;;;;;;;;;;8218077;28;20022;-64
2023/01/01 22:11:21;;;;;;;6.75;2.00;;;;;;;;;;8222028;28;20045;-63
2023/01/01 22:15:24;;;;;;;6.47;2.05;;;;;;;;;;8226625;28;20054;-63
2023/01/01 22:19:29;;;;;;;5.35;1.77;;;;;;;;;;8226679;28;20026;-63
2023/01/01 22:23:39;;;;;;;8.45;1.85;;;;;;;;;;8220415;28;20031;-63
2023/01/01 22:27:40;;;;;;;6.00;2.08;;;;;;;;;;8222634;28;20027;-63
2023/01/01 22:31:40;;;;;;;9.30;1.88;;;;;;;;;;8223566;28;20046;-63
2023/01/01 22:35:40;;;;;;;6.50;2.07;;;;;;;;;;8238993;28;20085;-63
2023/01/01 22:39:41;;;;;;;6.53;1.88;;;;;;;;;;8232161;28;20309;-63
2023/01/01 22:43:42;;;;;;;7.43;2.63;;;;;;;;;;8227321;28;20070;-63
2023/01/01 22:47:45;;;;;;;8.93;1.92;;;;;;;;;;8221353;28;20133;-63
2023/01/01 22:51:46;;;;;;;10.07;2.10;;;;;;;;;;8228355;28;20051;-63
2023/01/01 22:55:46;;;;;;;6.68;1.98;;;;;;;;;;8225242;28;20349;-63
2023/01/01 22:59:46;;;;;;;8.13;2.03;;;;;;;;;;8230234;28;20030;-63
2023/01/01 23:03:46;;;;;;;8.27;2.28;;;;;;;;;;8228260;28;20042;-63
2023/01/01 23:07:46;;;;;;;10.80;2.20;;;;;;;;;;8223636;28;20050;-63
2023/01/01 23:11:46;;;;;;;8.40;2.15;;;;;;;;;;8220616;28;20030;-63
2023/01/01 23:15:59;;;;;;;8.07;2.22;;;;;;;;;;8224174;28;20039;-63
2023/01/01 23:19:59;;;;;;;11.20;2.10;;;;;;;;;;8225605;28;20065;-63
2023/01/01 23:24:01;;;;;;;7.40;2.08;;;;;;;;;;8224003;28;20058;-63
2023/01/01 23:28:01;;;;;;;7.78;1.85;;;;;;;;;;8217564;28;20101;-63
2023/01/01 23:32:02;;;;;;;7.88;1.60;;;;;;;;;;8226292;28;20570;-63
2023/01/01 23:36:02;;;;;;;8.82;1.90;;;;;;;;;;8223200;28;20090;-63
2023/01/01 23:40:03;;;;;;;9.88;2.40;;;;;;;;;;8224170;28;20054;-63
2023/01/01 23:44:03;;;;;;;7.03;1.92;;;;;;;;;;8222738;28;20046;-63
2023/01/01 23:48:04;;;;;;;13.00;2.30;;;;;;;;;;8228656;28;20091;-63
2023/01/01 23:52:04;;;;;;;16.02;2.20;;;;;;;;;;8218690;28;20050;-63
2023/01/01 23:56:04;;;;;;;4.38;1.77;;;;;;;;;;8216011;28;20030;-63
